Погода Березкана неделю

Могилёвская область, Белоруссия

26 мая-01 июня
  • 26мая
    Сегодня
    +13°
    +26°
    Ясно и безоблачно
    ВремяПогодаТемператураВлажностьДавлениеВетер, м/сВероятность осадков
    00:00Ясно и безоблачно+16°C59 %752 мм2.5 м/с2 %
    03:00Ясно и безоблачно+13°C72 %752 мм2.9 м/с2 %
    06:00Ясно и безоблачно+14°C72 %752 мм1.6 м/с2 %
    09:00Облачно с прояснениями+20°C56 %752 мм1.6 м/с2 %
    12:00Небольшая облачность+24°C40 %752 мм1.0 м/с2 %
    15:00Ясно и безоблачно+25°C36 %752 мм1.2 м/с2 %
    18:00Ясно и безоблачно+25°C38 %751 мм1.7 м/с2 %
    21:00Ясно и безоблачно+19°C62 %751 мм2.2 м/с2 %
  • 27мая
    Понедельник
    +13°
    +26°
    Практически безоблачно
    ВремяПогодаТемператураВлажностьДавлениеВетер, м/сВероятность осадков
    00:00Ясно и безоблачно+15°C68 %751 мм1.6 м/с2 %
    03:00Ясно и безоблачно+16°C62 %751 мм1.8 м/с2 %
    06:00Ясно и безоблачно+15°C73 %751 мм1.5 м/с2 %
    09:00Ясно и безоблачно+22°C55 %752 мм1.5 м/с2 %
    12:00Практически безоблачно+25°C40 %752 мм1.8 м/с2 %
    15:00Практически безоблачно+26°C42 %751 мм1.6 м/с2 %
    18:00Небольшая облачность и лёгкий дождик+25°C49 %750 мм1.2 м/с13 %
    21:00Ясно и безоблачно+20°C77 %750 мм1.5 м/с6 %
  • 28мая
    Вторник
    +13°
    +25°
    Облачно с прояснениями
    ВремяПогодаТемператураВлажностьДавлениеВетер, м/сВероятность осадков
    00:00Ясно и безоблачно+16°C90 %750 мм2.2 м/с2 %
    03:00Практически безоблачно+15°C88 %750 мм1.9 м/с2 %
    06:00Ясно и безоблачно+15°C86 %749 мм2.1 м/с2 %
    09:00Ясно и безоблачно+22°C65 %750 мм1.9 м/с2 %
    12:00Ясно и безоблачно+24°C54 %749 мм2.8 м/с11 %
    15:00Облачно с прояснениями+25°C47 %748 мм2.5 м/с33 %
    18:00Небольшая облачность+22°C57 %748 мм1.4 м/с47 %
    21:00Практически безоблачно+20°C78 %747 мм3.0 м/с17 %
  • 29мая
    Среда
    +14°
    +27°
    Практически безоблачно
    ВремяПогодаТемператураВлажностьДавлениеВетер, м/сВероятность осадков
    00:00Ясно и безоблачно+16°C88 %746 мм2.6 м/с3 %
    03:00Практически безоблачно+15°C89 %746 мм2.4 м/с2 %
    06:00Практически безоблачно+15°C83 %745 мм2.6 м/с2 %
    09:00Облачно с прояснениями+21°C64 %746 мм1.6 м/с2 %
    12:00Практически безоблачно+24°C48 %745 мм2.0 м/с8 %
    15:00Практически безоблачно+26°C33 %745 мм2.4 м/с22 %
    18:00Ясно и безоблачно+25°C36 %743 мм2.6 м/с12 %
    21:00Практически безоблачно+21°C58 %743 мм2.2 м/с2 %
  • 30мая
    Четверг
    +14°
    +26°
    Облачно с прояснениями
    ВремяПогодаТемператураВлажностьДавлениеВетер, м/сВероятность осадков
    00:00Ясно и безоблачно+17°C66 %743 мм2.2 м/с2 %
    03:00Облачно с прояснениями+15°C72 %742 мм2.6 м/с2 %
    06:00Облачно с прояснениями+15°C73 %742 мм3.1 м/с2 %
    09:00Облачно с прояснениями+20°C62 %742 мм2.8 м/с2 %
    12:00Облачно с прояснениями+25°C32 %742 мм4.7 м/с15 %
    15:00Облачно с прояснениями+25°C37 %742 мм4.3 м/с35 %
    18:00Облачно с прояснениями+25°C37 %741 мм3.0 м/с42 %
    21:00Практически безоблачно+20°C56 %741 мм1.9 м/с8 %
Мы используем cookies
Соглашаюсь